sensor_id;sensor_type;location;lat;lon;timestamp;P1;durP1;ratioP1;P2;durP2;ratioP2
15504;SDS011;7854;52.184;5.942;2023-01-06T00:03:11;6;;;5;;
15504;SDS011;7854;52.184;5.942;2023-01-06T00:04:12;7;;;6;;
15504;SDS011;7854;52.184;5.942;2023-01-06T00:06:27;8;;;6;;
15504;SDS011;7854;52.184;5.942;2023-01-06T00:08:41;12;;;5;;
15504;SDS011;7854;52.184;5.942;2023-01-06T00:10:56;6;;;6;;
15504;SDS011;7854;52.184;5.942;2023-01-06T00:13:09;6;;;5;;
15504;SDS011;7854;52.184;5.942;2023-01-06T00:15:24;10;;;5;;
15504;SDS011;7854;52.184;5.942;2023-01-06T00:17:39;6;;;5;;
15504;SDS011;7854;52.184;5.942;2023-01-06T00:19:53;5;;;4;;
15504;SDS011;7854;52.184;5.942;2023-01-06T00:22:08;4;;;4;;
15504;SDS011;7854;52.184;5.942;2023-01-06T00:24:22;7;;;5;;
15504;SDS011;7854;52.184;5.942;2023-01-06T00:26:36;5;;;5;;
15504;SDS011;7854;52.184;5.942;2023-01-06T00:28:51;6;;;5;;
15504;SDS011;7854;52.184;5.942;2023-01-06T00:31:04;8;;;6;;
15504;SDS011;7854;52.184;5.942;2023-01-06T00:33:19;7;;;6;;
15504;SDS011;7854;52.184;5.942;2023-01-06T00:35:33;6;;;5;;
15504;SDS011;7854;52.184;5.942;2023-01-06T00:37:47;6;;;5;;
15504;SDS011;7854;52.184;5.942;2023-01-06T00:40:03;5;;;4;;
15504;SDS011;7854;52.184;5.942;2023-01-06T00:42:17;6;;;5;;
15504;SDS011;7854;52.184;5.942;2023-01-06T00:44:32;7;;;4;;
15504;SDS011;7854;52.184;5.942;2023-01-06T00:46:45;5;;;4;;
15504;SDS011;7854;52.184;5.942;2023-01-06T00:49:00;6;;;4;;
15504;SDS011;7854;52.184;5.942;2023-01-06T00:51:14;7;;;4;;
15504;SDS011;7854;52.184;5.942;2023-01-06T00:53:29;8;;;5;;
15504;SDS011;7854;52.184;5.942;2023-01-06T00:55:43;5;;;4;;
15504;SDS011;7854;52.184;5.942;2023-01-06T00:57:58;5;;;4;;
15504;SDS011;7854;52.184;5.942;2023-01-06T01:00:12;5;;;4;;
15504;SDS011;7854;52.184;5.942;2023-01-06T01:02:27;6;;;6;;
15504;SDS011;7854;52.184;5.942;2023-01-06T01:04:41;6;;;6;;
15504;SDS011;7854;52.184;5.942;2023-01-06T01:06:56;7;;;7;;
15504;SDS011;7854;52.184;5.942;2023-01-06T01:09:12;7;;;7;;
15504;SDS011;7854;52.184;5.942;2023-01-06T01:11:24;7;;;6;;
15504;SDS011;7854;52.184;5.942;2023-01-06T01:13:38;8;;;8;;
15504;SDS011;7854;52.184;5.942;2023-01-06T01:15:51;9;;;8;;
15504;SDS011;7854;52.184;5.942;2023-01-06T01:18:06;9;;;9;;
15504;SDS011;7854;52.184;5.942;2023-01-06T01:20:20;12;;;9;;
15504;SDS011;7854;52.184;5.942;2023-01-06T01:22:34;11;;;10;;
15504;SDS011;7854;52.184;5.942;2023-01-06T01:24:49;12;;;11;;
15504;SDS011;7854;52.184;5.942;2023-01-06T01:27:04;13;;;12;;
15504;SDS011;7854;52.184;5.942;2023-01-06T01:29:18;13;;;12;;
15504;SDS011;7854;52.184;5.942;2023-01-06T01:31:32;23;;;14;;
15504;SDS011;7854;52.184;5.942;2023-01-06T01:36:04;18;;;11;;
15504;SDS011;7854;52.184;5.942;2023-01-06T01:38:16;12;;;11;;
15504;SDS011;7854;52.184;5.942;2023-01-06T01:40:30;10;;;10;;
15504;SDS011;7854;52.184;5.942;2023-01-06T01:42:44;11;;;10;;
15504;SDS011;7854;52.184;5.942;2023-01-06T01:45:01;10;;;9;;
15504;SDS011;7854;52.184;5.942;2023-01-06T01:47:14;10;;;10;;
15504;SDS011;7854;52.184;5.942;2023-01-06T01:49:28;25;;;14;;
15504;SDS011;7854;52.184;5.942;2023-01-06T01:51:44;10;;;9;;
15504;SDS011;7854;52.184;5.942;2023-01-06T01:53:57;9;;;9;;
15504;SDS011;7854;52.184;5.942;2023-01-06T01:56:12;9;;;7;;
15504;SDS011;7854;52.184;5.942;2023-01-06T01:58:26;9;;;8;;
15504;SDS011;7854;52.184;5.942;2023-01-06T02:00:41;8;;;7;;
15504;SDS011;7854;52.184;5.942;2023-01-06T02:02:55;8;;;7;;
15504;SDS011;7854;52.184;5.942;2023-01-06T02:05:08;11;;;7;;
15504;SDS011;7854;52.184;5.942;2023-01-06T02:07:24;17;;;6;;
15504;SDS011;7854;52.184;5.942;2023-01-06T02:09:38;8;;;7;;
15504;SDS011;7854;52.184;5.942;2023-01-06T02:11:51;7;;;7;;
15504;SDS011;7854;52.184;5.942;2023-01-06T02:14:09;6;;;5;;
15504;SDS011;7854;52.184;5.942;2023-01-06T02:16:21;6;;;5;;
15504;SDS011;7854;52.184;5.942;2023-01-06T02:18:38;8;;;6;;
15504;SDS011;7854;52.184;5.942;2023-01-06T02:23:10;6;;;5;;
15504;SDS011;7854;52.184;5.942;2023-01-06T02:25:24;6;;;6;;
15504;SDS011;7854;52.184;5.942;2023-01-06T02:27:40;5;;;4;;
15504;SDS011;7854;52.184;5.942;2023-01-06T02:29:56;4;;;3;;
15504;SDS011;7854;52.184;5.942;2023-01-06T02:32:01;10;;;5;;
15504;SDS011;7854;52.184;5.942;2023-01-06T02:34:16;11;;;5;;
15504;SDS011;7854;52.184;5.942;2023-01-06T02:36:31;4;;;3;;
15504;SDS011;7854;52.184;5.942;2023-01-06T02:38:48;6;;;3;;
15504;SDS011;7854;52.184;5.942;2023-01-06T02:41:02;4;;;4;;
15504;SDS011;7854;52.184;5.942;2023-01-06T02:43:14;3;;;3;;
15504;SDS011;7854;52.184;5.942;2023-01-06T02:45:29;5;;;3;;
15504;SDS011;7854;52.184;5.942;2023-01-06T02:47:43;3;;;2;;
15504;SDS011;7854;52.184;5.942;2023-01-06T02:49:56;8;;;3;;
15504;SDS011;7854;52.184;5.942;2023-01-06T02:52:12;3;;;3;;
15504;SDS011;7854;52.184;5.942;2023-01-06T02:54:27;10;;;3;;
15504;SDS011;7854;52.184;5.942;2023-01-06T02:56:41;3;;;3;;
15504;SDS011;7854;52.184;5.942;2023-01-06T02:58:54;3;;;3;;
15504;SDS011;7854;52.184;5.942;2023-01-06T03:01:10;3;;;2;;
15504;SDS011;7854;52.184;5.942;2023-01-06T03:03:23;9;;;2;;
15504;SDS011;7854;52.184;5.942;2023-01-06T03:05:37;2;;;2;;
15504;SDS011;7854;52.184;5.942;2023-01-06T03:07:51;2;;;2;;
15504;SDS011;7854;52.184;5.942;2023-01-06T03:10:06;3;;;2;;
15504;SDS011;7854;52.184;5.942;2023-01-06T03:12:23;3;;;2;;
15504;SDS011;7854;52.184;5.942;2023-01-06T03:14:35;2;;;2;;
15504;SDS011;7854;52.184;5.942;2023-01-06T03:16:48;22;;;2;;
15504;SDS011;7854;52.184;5.942;2023-01-06T03:19:03;2;;;2;;
15504;SDS011;7854;52.184;5.942;2023-01-06T03:21:18;2;;;2;;
15504;SDS011;7854;52.184;5.942;2023-01-06T03:23:32;4;;;2;;
15504;SDS011;7854;52.184;5.942;2023-01-06T03:25:46;10;;;2;;
15504;SDS011;7854;52.184;5.942;2023-01-06T03:28:01;2;;;2;;
15504;SDS011;7854;52.184;5.942;2023-01-06T03:30:15;2;;;1;;
15504;SDS011;7854;52.184;5.942;2023-01-06T03:32:31;1;;;1;;
15504;SDS011;7854;52.184;5.942;2023-01-06T03:34:50;2;;;2;;
15504;SDS011;7854;52.184;5.942;2023-01-06T03:37:00;3;;;2;;
15504;SDS011;7854;52.184;5.942;2023-01-06T03:39:14;2;;;1;;
15504;SDS011;7854;52.184;5.942;2023-01-06T03:41:28;1;;;1;;
15504;SDS011;7854;52.184;5.942;2023-01-06T03:43:43;1;;;1;;
15504;SDS011;7854;52.184;5.942;2023-01-06T03:48:12;3;;;1;;
15504;SDS011;7854;52.184;5.942;2023-01-06T03:50:24;1;;;1;;
15504;SDS011;7854;52.184;5.942;2023-01-06T03:52:38;2;;;1;;
15504;SDS011;7854;52.184;5.942;2023-01-06T03:54:53;4;;;1;;
15504;SDS011;7854;52.184;5.942;2023-01-06T03:57:07;1;;;1;;
15504;SDS011;7854;52.184;5.942;2023-01-06T03:59:22;2;;;1;;
15504;SDS011;7854;52.184;5.942;2023-01-06T04:01:35;1;;;1;;
15504;SDS011;7854;52.184;5.942;2023-01-06T04:03:50;1;;;1;;
15504;SDS011;7854;52.184;5.942;2023-01-06T04:06:04;2;;;2;;
15504;SDS011;7854;52.184;5.942;2023-01-06T04:08:19;2;;;2;;
15504;SDS011;7854;52.184;5.942;2023-01-06T04:10:33;1;;;1;;
15504;SDS011;7854;52.184;5.942;2023-01-06T04:12:48;4;;;2;;
15504;SDS011;7854;52.184;5.942;2023-01-06T04:15:02;1;;;1;;
15504;SDS011;7854;52.184;5.942;2023-01-06T04:17:16;3;;;1;;
15504;SDS011;7854;52.184;5.942;2023-01-06T04:19:31;0;;;0;;
15504;SDS011;7854;52.184;5.942;2023-01-06T04:21:45;1;;;1;;
15504;SDS011;7854;52.184;5.942;2023-01-06T04:24:00;9;;;1;;
15504;SDS011;7854;52.184;5.942;2023-01-06T04:26:14;1;;;0;;
15504;SDS011;7854;52.184;5.942;2023-01-06T04:28:28;0;;;0;;
15504;SDS011;7854;52.184;5.942;2023-01-06T04:30:43;2;;;1;;
15504;SDS011;7854;52.184;5.942;2023-01-06T04:32:58;2;;;1;;
15504;SDS011;7854;52.184;5.942;2023-01-06T04:35:12;0;;;0;;
15504;SDS011;7854;52.184;5.942;2023-01-06T04:37:27;1;;;0;;
15504;SDS011;7854;52.184;5.942;2023-01-06T04:39:41;1;;;1;;
15504;SDS011;7854;52.184;5.942;2023-01-06T04:41:55;2;;;1;;
15504;SDS011;7854;52.184;5.942;2023-01-06T04:44:10;1;;;0;;
15504;SDS011;7854;52.184;5.942;2023-01-06T04:46:24;1;;;0;;
15504;SDS011;7854;52.184;5.942;2023-01-06T04:48:39;2;;;1;;
15504;SDS011;7854;52.184;5.942;2023-01-06T04:50:58;1;;;0;;
15504;SDS011;7854;52.184;5.942;2023-01-06T04:53:08;1;;;0;;
15504;SDS011;7854;52.184;5.942;2023-01-06T04:55:21;8;;;1;;
15504;SDS011;7854;52.184;5.942;2023-01-06T04:57:36;0;;;0;;
15504;SDS011;7854;52.184;5.942;2023-01-06T04:59:50;0;;;0;;
15504;SDS011;7854;52.184;5.942;2023-01-06T05:02:05;2;;;0;;
15504;SDS011;7854;52.184;5.942;2023-01-06T05:04:19;2;;;0;;
15504;SDS011;7854;52.184;5.942;2023-01-06T05:06:33;1;;;1;;
15504;SDS011;7854;52.184;5.942;2023-01-06T05:08:47;0;;;0;;
15504;SDS011;7854;52.184;5.942;2023-01-06T05:11:03;1;;;0;;
15504;SDS011;7854;52.184;5.942;2023-01-06T05:13:17;6;;;0;;
15504;SDS011;7854;52.184;5.942;2023-01-06T05:15:31;1;;;0;;
15504;SDS011;7854;52.184;5.942;2023-01-06T05:17:45;1;;;1;;
15504;SDS011;7854;52.184;5.942;2023-01-06T05:20:00;1;;;0;;
15504;SDS011;7854;52.184;5.942;2023-01-06T05:22:14;1;;;1;;
15504;SDS011;7854;52.184;5.942;2023-01-06T05:24:29;1;;;0;;
15504;SDS011;7854;52.184;5.942;2023-01-06T05:26:43;1;;;1;;
15504;SDS011;7854;52.184;5.942;2023-01-06T05:28:58;2;;;1;;
15504;SDS011;7854;52.184;5.942;2023-01-06T05:31:12;1;;;1;;
15504;SDS011;7854;52.184;5.942;2023-01-06T05:33:27;1;;;1;;
15504;SDS011;7854;52.184;5.942;2023-01-06T05:35:41;3;;;1;;
15504;SDS011;7854;52.184;5.942;2023-01-06T05:37:56;1;;;1;;
15504;SDS011;7854;52.184;5.942;2023-01-06T05:40:10;1;;;1;;
15504;SDS011;7854;52.184;5.942;2023-01-06T05:42:24;2;;;0;;
15504;SDS011;7854;52.184;5.942;2023-01-06T05:44:39;0;;;0;;
15504;SDS011;7854;52.184;5.942;2023-01-06T05:46:53;2;;;1;;
15504;SDS011;7854;52.184;5.942;2023-01-06T05:49:08;1;;;0;;
15504;SDS011;7854;52.184;5.942;2023-01-06T05:51:22;2;;;0;;
15504;SDS011;7854;52.184;5.942;2023-01-06T05:53:38;1;;;1;;
15504;SDS011;7854;52.184;5.942;2023-01-06T05:55:51;1;;;0;;
15504;SDS011;7854;52.184;5.942;2023-01-06T05:58:06;0;;;0;;
15504;SDS011;7854;52.184;5.942;2023-01-06T06:00:20;2;;;1;;
15504;SDS011;7854;52.184;5.942;2023-01-06T06:02:34;1;;;1;;
15504;SDS011;7854;52.184;5.942;2023-01-06T06:04:49;2;;;1;;
15504;SDS011;7854;52.184;5.942;2023-01-06T06:09:18;1;;;1;;
15504;SDS011;7854;52.184;5.942;2023-01-06T06:11:32;3;;;1;;
15504;SDS011;7854;52.184;5.942;2023-01-06T06:13:47;2;;;2;;
15504;SDS011;7854;52.184;5.942;2023-01-06T06:16:02;1;;;1;;
15504;SDS011;7854;52.184;5.942;2023-01-06T06:18:16;2;;;2;;
15504;SDS011;7854;52.184;5.942;2023-01-06T06:20:30;2;;;2;;
15504;SDS011;7854;52.184;5.942;2023-01-06T06:22:44;4;;;2;;
15504;SDS011;7854;52.184;5.942;2023-01-06T06:24:59;7;;;2;;
15504;SDS011;7854;52.184;5.942;2023-01-06T06:27:13;2;;;2;;
15504;SDS011;7854;52.184;5.942;2023-01-06T06:29:27;3;;;2;;
15504;SDS011;7854;52.184;5.942;2023-01-06T06:31:42;2;;;2;;
15504;SDS011;7854;52.184;5.942;2023-01-06T06:33:57;3;;;3;;
15504;SDS011;7854;52.184;5.942;2023-01-06T06:36:11;2;;;2;;
15504;SDS011;7854;52.184;5.942;2023-01-06T06:38:26;2;;;2;;
15504;SDS011;7854;52.184;5.942;2023-01-06T06:40:42;2;;;2;;
15504;SDS011;7854;52.184;5.942;2023-01-06T06:42:54;2;;;2;;
15504;SDS011;7854;52.184;5.942;2023-01-06T06:45:09;2;;;2;;
15504;SDS011;7854;52.184;5.942;2023-01-06T06:47:23;4;;;3;;
15504;SDS011;7854;52.184;5.942;2023-01-06T06:49:38;6;;;3;;
15504;SDS011;7854;52.184;5.942;2023-01-06T06:51:52;2;;;2;;
15504;SDS011;7854;52.184;5.942;2023-01-06T06:54:07;2;;;2;;
15504;SDS011;7854;52.184;5.942;2023-01-06T06:56:21;1;;;1;;
15504;SDS011;7854;52.184;5.942;2023-01-06T06:58:35;2;;;2;;
15504;SDS011;7854;52.184;5.942;2023-01-06T07:00:49;2;;;2;;
15504;SDS011;7854;52.184;5.942;2023-01-06T07:03:03;2;;;2;;
15504;SDS011;7854;52.184;5.942;2023-01-06T07:05:18;2;;;2;;
15504;SDS011;7854;52.184;5.942;2023-01-06T07:07:32;2;;;2;;
15504;SDS011;7854;52.184;5.942;2023-01-06T07:09:47;2;;;2;;
15504;SDS011;7854;52.184;5.942;2023-01-06T07:12:02;2;;;2;;
15504;SDS011;7854;52.184;5.942;2023-01-06T07:14:16;2;;;2;;
15504;SDS011;7854;52.184;5.942;2023-01-06T07:16:30;2;;;2;;
15504;SDS011;7854;52.184;5.942;2023-01-06T07:18:45;2;;;2;;
15504;SDS011;7854;52.184;5.942;2023-01-06T07:20:59;2;;;2;;
15504;SDS011;7854;52.184;5.942;2023-01-06T07:23:13;2;;;2;;
15504;SDS011;7854;52.184;5.942;2023-01-06T07:25:28;3;;;3;;
15504;SDS011;7854;52.184;5.942;2023-01-06T07:27:42;4;;;4;;
15504;SDS011;7854;52.184;5.942;2023-01-06T07:29:57;4;;;3;;
15504;SDS011;7854;52.184;5.942;2023-01-06T07:32:10;4;;;4;;
15504;SDS011;7854;52.184;5.942;2023-01-06T07:34:25;4;;;4;;
15504;SDS011;7854;52.184;5.942;2023-01-06T07:36:39;6;;;5;;
15504;SDS011;7854;52.184;5.942;2023-01-06T07:38:54;4;;;4;;
15504;SDS011;7854;52.184;5.942;2023-01-06T07:41:09;5;;;5;;
15504;SDS011;7854;52.184;5.942;2023-01-06T07:43:22;5;;;5;;
15504;SDS011;7854;52.184;5.942;2023-01-06T07:45:37;6;;;6;;
15504;SDS011;7854;52.184;5.942;2023-01-06T07:47:51;5;;;5;;
15504;SDS011;7854;52.184;5.942;2023-01-06T07:50:06;7;;;6;;
15504;SDS011;7854;52.184;5.942;2023-01-06T07:54:35;6;;;6;;
15504;SDS011;7854;52.184;5.942;2023-01-06T07:56:49;7;;;6;;
15504;SDS011;7854;52.184;5.942;2023-01-06T07:59:03;9;;;7;;
15504;SDS011;7854;52.184;5.942;2023-01-06T08:03:33;8;;;8;;
15504;SDS011;7854;52.184;5.942;2023-01-06T08:05:46;7;;;6;;
15504;SDS011;7854;52.184;5.942;2023-01-06T08:08:06;8;;;7;;
15504;SDS011;7854;52.184;5.942;2023-01-06T08:10:27;6;;;6;;
15504;SDS011;7854;52.184;5.942;2023-01-06T08:12:47;7;;;7;;
15504;SDS011;7854;52.184;5.942;2023-01-06T08:15:08;9;;;9;;
15504;SDS011;7854;52.184;5.942;2023-01-06T08:17:28;8;;;8;;
15504;SDS011;7854;52.184;5.942;2023-01-06T08:19:48;10;;;9;;
15504;SDS011;7854;52.184;5.942;2023-01-06T08:22:03;9;;;8;;
15504;SDS011;7854;52.184;5.942;2023-01-06T08:24:17;8;;;7;;
15504;SDS011;7854;52.184;5.942;2023-01-06T08:26:32;9;;;8;;
15504;SDS011;7854;52.184;5.942;2023-01-06T08:28:46;9;;;9;;
15504;SDS011;7854;52.184;5.942;2023-01-06T08:31:01;8;;;7;;
15504;SDS011;7854;52.184;5.942;2023-01-06T08:33:15;8;;;7;;
15504;SDS011;7854;52.184;5.942;2023-01-06T08:35:29;7;;;6;;
15504;SDS011;7854;52.184;5.942;2023-01-06T08:37:44;7;;;7;;
15504;SDS011;7854;52.184;5.942;2023-01-06T08:39:59;8;;;7;;
15504;SDS011;7854;52.184;5.942;2023-01-06T08:42:13;6;;;6;;
15504;SDS011;7854;52.184;5.942;2023-01-06T08:44:27;6;;;6;;
15504;SDS011;7854;52.184;5.942;2023-01-06T08:48:56;8;;;7;;
15504;SDS011;7854;52.184;5.942;2023-01-06T08:51:11;7;;;6;;
15504;SDS011;7854;52.184;5.942;2023-01-06T08:53:25;7;;;7;;
15504;SDS011;7854;52.184;5.942;2023-01-06T08:55:40;8;;;7;;
15504;SDS011;7854;52.184;5.942;2023-01-06T08:57:54;6;;;6;;
15504;SDS011;7854;52.184;5.942;2023-01-06T09:00:09;7;;;7;;
15504;SDS011;7854;52.184;5.942;2023-01-06T09:02:23;7;;;6;;
15504;SDS011;7854;52.184;5.942;2023-01-06T09:04:37;8;;;7;;
15504;SDS011;7854;52.184;5.942;2023-01-06T09:06:51;9;;;8;;
15504;SDS011;7854;52.184;5.942;2023-01-06T09:09:07;7;;;7;;
15504;SDS011;7854;52.184;5.942;2023-01-06T09:11:21;6;;;6;;
15504;SDS011;7854;52.184;5.942;2023-01-06T09:13:35;7;;;6;;
15504;SDS011;7854;52.184;5.942;2023-01-06T09:15:50;9;;;8;;
15504;SDS011;7854;52.184;5.942;2023-01-06T09:18:04;14;;;7;;
15504;SDS011;7854;52.184;5.942;2023-01-06T09:20:18;9;;;8;;
15504;SDS011;7854;52.184;5.942;2023-01-06T09:22:33;9;;;9;;
15504;SDS011;7854;52.184;5.942;2023-01-06T09:24:47;8;;;7;;
15504;SDS011;7854;52.184;5.942;2023-01-06T09:27:02;9;;;7;;
15504;SDS011;7854;52.184;5.942;2023-01-06T09:29:16;7;;;7;;
15504;SDS011;7854;52.184;5.942;2023-01-06T09:31:31;8;;;7;;
15504;SDS011;7854;52.184;5.942;2023-01-06T09:33:45;9;;;7;;
15504;SDS011;7854;52.184;5.942;2023-01-06T09:36:00;8;;;7;;
15504;SDS011;7854;52.184;5.942;2023-01-06T09:38:14;7;;;6;;
15504;SDS011;7854;52.184;5.942;2023-01-06T09:40:29;6;;;6;;
15504;SDS011;7854;52.184;5.942;2023-01-06T09:42:45;7;;;5;;
15504;SDS011;7854;52.184;5.942;2023-01-06T09:44:59;7;;;5;;
15504;SDS011;7854;52.184;5.942;2023-01-06T09:47:12;5;;;5;;
15504;SDS011;7854;52.184;5.942;2023-01-06T09:49:27;5;;;5;;
15504;SDS011;7854;52.184;5.942;2023-01-06T09:51:41;15;;;5;;
15504;SDS011;7854;52.184;5.942;2023-01-06T09:53:57;6;;;4;;
15504;SDS011;7854;52.184;5.942;2023-01-06T09:56:11;5;;;4;;
15504;SDS011;7854;52.184;5.942;2023-01-06T09:58:25;7;;;4;;
15504;SDS011;7854;52.184;5.942;2023-01-06T10:00:39;5;;;4;;
15504;SDS011;7854;52.184;5.942;2023-01-06T10:02:53;4;;;4;;
15504;SDS011;7854;52.184;5.942;2023-01-06T10:05:14;3;;;3;;
15504;SDS011;7854;52.184;5.942;2023-01-06T10:07:23;11;;;5;;
15504;SDS011;7854;52.184;5.942;2023-01-06T10:09:39;4;;;3;;
15504;SDS011;7854;52.184;5.942;2023-01-06T10:11:53;4;;;3;;
15504;SDS011;7854;52.184;5.942;2023-01-06T10:14:08;4;;;4;;
15504;SDS011;7854;52.184;5.942;2023-01-06T10:16:21;15;;;4;;
15504;SDS011;7854;52.184;5.942;2023-01-06T10:18:36;4;;;3;;
15504;SDS011;7854;52.184;5.942;2023-01-06T10:20:52;3;;;2;;
15504;SDS011;7854;52.184;5.942;2023-01-06T10:23:04;5;;;3;;
15504;SDS011;7854;52.184;5.942;2023-01-06T10:25:18;5;;;3;;
15504;SDS011;7854;52.184;5.942;2023-01-06T10:27:34;3;;;2;;
15504;SDS011;7854;52.184;5.942;2023-01-06T10:29:46;4;;;2;;
15504;SDS011;7854;52.184;5.942;2023-01-06T10:32:01;15;;;2;;
15504;SDS011;7854;52.184;5.942;2023-01-06T10:34:17;4;;;2;;
15504;SDS011;7854;52.184;5.942;2023-01-06T10:36:30;3;;;2;;
15504;SDS011;7854;52.184;5.942;2023-01-06T10:38:44;2;;;2;;
15504;SDS011;7854;52.184;5.942;2023-01-06T10:41:01;8;;;1;;
15504;SDS011;7854;52.184;5.942;2023-01-06T10:43:12;13;;;2;;
15504;SDS011;7854;52.184;5.942;2023-01-06T10:45:27;1;;;0;;
15504;SDS011;7854;52.184;5.942;2023-01-06T10:47:41;6;;;1;;
15504;SDS011;7854;52.184;5.942;2023-01-06T10:49:55;5;;;2;;
15504;SDS011;7854;52.184;5.942;2023-01-06T10:52:10;2;;;2;;
15504;SDS011;7854;52.184;5.942;2023-01-06T10:54:25;2;;;1;;
15504;SDS011;7854;52.184;5.942;2023-01-06T10:56:41;20;;;2;;
15504;SDS011;7854;52.184;5.942;2023-01-06T10:58:54;8;;;2;;
15504;SDS011;7854;52.184;5.942;2023-01-06T11:01:08;2;;;1;;
15504;SDS011;7854;52.184;5.942;2023-01-06T11:03:22;3;;;1;;
15504;SDS011;7854;52.184;5.942;2023-01-06T11:05:36;2;;;1;;
15504;SDS011;7854;52.184;5.942;2023-01-06T11:07:54;5;;;1;;
15504;SDS011;7854;52.184;5.942;2023-01-06T11:10:11;3;;;1;;
15504;SDS011;7854;52.184;5.942;2023-01-06T11:12:21;3;;;1;;
15504;SDS011;7854;52.184;5.942;2023-01-06T11:14:34;15;;;3;;
15504;SDS011;7854;52.184;5.942;2023-01-06T11:16:52;1;;;1;;
15504;SDS011;7854;52.184;5.942;2023-01-06T11:19:03;3;;;1;;
15504;SDS011;7854;52.184;5.942;2023-01-06T11:21:17;3;;;1;;
15504;SDS011;7854;52.184;5.942;2023-01-06T11:23:32;4;;;1;;
15504;SDS011;7854;52.184;5.942;2023-01-06T11:25:58;3;;;1;;
15504;SDS011;7854;52.184;5.942;2023-01-06T11:28:17;16;;;2;;
15504;SDS011;7854;52.184;5.942;2023-01-06T11:30:19;8;;;1;;
15504;SDS011;7854;52.184;5.942;2023-01-06T11:32:30;6;;;2;;
15504;SDS011;7854;52.184;5.942;2023-01-06T11:34:49;2;;;1;;
15504;SDS011;7854;52.184;5.942;2023-01-06T11:36:59;3;;;1;;
15504;SDS011;7854;52.184;5.942;2023-01-06T11:39:13;3;;;1;;
15504;SDS011;7854;52.184;5.942;2023-01-06T11:41:30;2;;;1;;
15504;SDS011;7854;52.184;5.942;2023-01-06T11:43:43;3;;;1;;
15504;SDS011;7854;52.184;5.942;2023-01-06T11:45:57;1;;;0;;
15504;SDS011;7854;52.184;5.942;2023-01-06T11:48:12;3;;;0;;
15504;SDS011;7854;52.184;5.942;2023-01-06T11:50:25;3;;;0;;
15504;SDS011;7854;52.184;5.942;2023-01-06T11:52:38;4;;;0;;
15504;SDS011;7854;52.184;5.942;2023-01-06T11:54:58;3;;;0;;
15504;SDS011;7854;52.184;5.942;2023-01-06T11:57:12;5;;;0;;
15504;SDS011;7854;52.184;5.942;2023-01-06T11:59:22;6;;;0;;
15504;SDS011;7854;52.184;5.942;2023-01-06T12:01:37;5;;;0;;
15504;SDS011;7854;52.184;5.942;2023-01-06T12:03:51;1;;;0;;
15504;SDS011;7854;52.184;5.942;2023-01-06T12:06:09;2;;;1;;
15504;SDS011;7854;52.184;5.942;2023-01-06T12:08:21;5;;;0;;
15504;SDS011;7854;52.184;5.942;2023-01-06T12:10:34;2;;;0;;
15504;SDS011;7854;52.184;5.942;2023-01-06T12:12:49;3;;;0;;
15504;SDS011;7854;52.184;5.942;2023-01-06T12:15:05;0;;;0;;
15504;SDS011;7854;52.184;5.942;2023-01-06T12:17:19;1;;;1;;
15504;SDS011;7854;52.184;5.942;2023-01-06T12:19:33;1;;;0;;
15504;SDS011;7854;52.184;5.942;2023-01-06T12:21:45;10;;;1;;
15504;SDS011;7854;52.184;5.942;2023-01-06T12:24:00;2;;;0;;
15504;SDS011;7854;52.184;5.942;2023-01-06T12:26:16;7;;;2;;
15504;SDS011;7854;52.184;5.942;2023-01-06T12:28:30;2;;;0;;
15504;SDS011;7854;52.184;5.942;2023-01-06T12:30:44;2;;;0;;
15504;SDS011;7854;52.184;5.942;2023-01-06T12:32:59;2;;;0;;
15504;SDS011;7854;52.184;5.942;2023-01-06T12:35:13;7;;;1;;
15504;SDS011;7854;52.184;5.942;2023-01-06T12:37:28;5;;;0;;
15504;SDS011;7854;52.184;5.942;2023-01-06T12:39:41;4;;;0;;
15504;SDS011;7854;52.184;5.942;2023-01-06T12:41:56;8;;;1;;
15504;SDS011;7854;52.184;5.942;2023-01-06T12:44:12;0;;;0;;
15504;SDS011;7854;52.184;5.942;2023-01-06T12:46:24;3;;;1;;
15504;SDS011;7854;52.184;5.942;2023-01-06T12:48:38;2;;;0;;
15504;SDS011;7854;52.184;5.942;2023-01-06T12:50:53;2;;;0;;
15504;SDS011;7854;52.184;5.942;2023-01-06T12:53:09;6;;;1;;
15504;SDS011;7854;52.184;5.942;2023-01-06T12:55:25;3;;;0;;
15504;SDS011;7854;52.184;5.942;2023-01-06T12:57:38;1;;;0;;
15504;SDS011;7854;52.184;5.942;2023-01-06T12:59:55;4;;;0;;
15504;SDS011;7854;52.184;5.942;2023-01-06T13:02:10;2;;;0;;
15504;SDS011;7854;52.184;5.942;2023-01-06T13:04:38;1;;;0;;
15504;SDS011;7854;52.184;5.942;2023-01-06T13:06:37;3;;;1;;
15504;SDS011;7854;52.184;5.942;2023-01-06T13:08:52;1;;;0;;
15504;SDS011;7854;52.184;5.942;2023-01-06T13:13:22;1;;;0;;
15504;SDS011;7854;52.184;5.942;2023-01-06T13:15:31;3;;;0;;
15504;SDS011;7854;52.184;5.942;2023-01-06T13:17:47;0;;;0;;
15504;SDS011;7854;52.184;5.942;2023-01-06T13:20:00;2;;;0;;
15504;SDS011;7854;52.184;5.942;2023-01-06T13:22:15;1;;;0;;
15504;SDS011;7854;52.184;5.942;2023-01-06T13:24:35;3;;;1;;
15504;SDS011;7854;52.184;5.942;2023-01-06T13:26:48;9;;;1;;
15504;SDS011;7854;52.184;5.942;2023-01-06T13:29:01;0;;;0;;
15504;SDS011;7854;52.184;5.942;2023-01-06T13:31:17;11;;;0;;
15504;SDS011;7854;52.184;5.942;2023-01-06T13:33:32;5;;;0;;
15504;SDS011;7854;52.184;5.942;2023-01-06T13:35:46;1;;;0;;
15504;SDS011;7854;52.184;5.942;2023-01-06T13:37:59;1;;;0;;
15504;SDS011;7854;52.184;5.942;2023-01-06T13:40:10;1;;;0;;
15504;SDS011;7854;52.184;5.942;2023-01-06T13:42:29;1;;;0;;
15504;SDS011;7854;52.184;5.942;2023-01-06T13:44:39;3;;;0;;
15504;SDS011;7854;52.184;5.942;2023-01-06T13:46:56;1;;;0;;
15504;SDS011;7854;52.184;5.942;2023-01-06T13:49:09;0;;;0;;
15504;SDS011;7854;52.184;5.942;2023-01-06T13:51:23;2;;;0;;
15504;SDS011;7854;52.184;5.942;2023-01-06T13:53:37;2;;;0;;
15504;SDS011;7854;52.184;5.942;2023-01-06T13:56:20;2;;;1;;
15504;SDS011;7854;52.184;5.942;2023-01-06T13:58:32;2;;;0;;
15504;SDS011;7854;52.184;5.942;2023-01-06T14:00:22;5;;;1;;
15504;SDS011;7854;52.184;5.942;2023-01-06T14:04:49;2;;;0;;
15504;SDS011;7854;52.184;5.942;2023-01-06T14:07:04;2;;;0;;
15504;SDS011;7854;52.184;5.942;2023-01-06T14:09:18;1;;;0;;
15504;SDS011;7854;52.184;5.942;2023-01-06T14:11:33;0;;;0;;
15504;SDS011;7854;52.184;5.942;2023-01-06T14:13:48;1;;;0;;
15504;SDS011;7854;52.184;5.942;2023-01-06T14:16:03;2;;;0;;
15504;SDS011;7854;52.184;5.942;2023-01-06T14:18:26;11;;;0;;
15504;SDS011;7854;52.184;5.942;2023-01-06T14:20:30;1;;;0;;
15504;SDS011;7854;52.184;5.942;2023-01-06T14:22:44;1;;;0;;
15504;SDS011;7854;52.184;5.942;2023-01-06T14:25:00;1;;;0;;
15504;SDS011;7854;52.184;5.942;2023-01-06T14:27:13;1;;;0;;
15504;SDS011;7854;52.184;5.942;2023-01-06T14:29:43;1;;;0;;
15504;SDS011;7854;52.184;5.942;2023-01-06T14:31:42;1;;;0;;
15504;SDS011;7854;52.184;5.942;2023-01-06T14:33:57;4;;;0;;
15504;SDS011;7854;52.184;5.942;2023-01-06T14:36:12;1;;;0;;
15504;SDS011;7854;52.184;5.942;2023-01-06T14:38:26;2;;;0;;
15504;SDS011;7854;52.184;5.942;2023-01-06T14:40:46;0;;;0;;
15504;SDS011;7854;52.184;5.942;2023-01-06T14:42:56;0;;;0;;
15504;SDS011;7854;52.184;5.942;2023-01-06T14:45:12;1;;;0;;
15504;SDS011;7854;52.184;5.942;2023-01-06T14:47:28;2;;;0;;
15504;SDS011;7854;52.184;5.942;2023-01-06T14:49:41;2;;;0;;
15504;SDS011;7854;52.184;5.942;2023-01-06T14:54:10;0;;;0;;
15504;SDS011;7854;52.184;5.942;2023-01-06T14:56:21;2;;;0;;
15504;SDS011;7854;52.184;5.942;2023-01-06T14:58:35;2;;;1;;
15504;SDS011;7854;52.184;5.942;2023-01-06T15:00:50;0;;;0;;
15504;SDS011;7854;52.184;5.942;2023-01-06T15:03:04;5;;;0;;
15504;SDS011;7854;52.184;5.942;2023-01-06T15:05:18;1;;;0;;
15504;SDS011;7854;52.184;5.942;2023-01-06T15:07:32;1;;;0;;
15504;SDS011;7854;52.184;5.942;2023-01-06T15:09:47;0;;;0;;
15504;SDS011;7854;52.184;5.942;2023-01-06T15:12:01;1;;;0;;
15504;SDS011;7854;52.184;5.942;2023-01-06T15:14:24;1;;;0;;
15504;SDS011;7854;52.184;5.942;2023-01-06T15:16:31;9;;;0;;
15504;SDS011;7854;52.184;5.942;2023-01-06T15:18:45;0;;;0;;
15504;SDS011;7854;52.184;5.942;2023-01-06T15:20:59;1;;;0;;
15504;SDS011;7854;52.184;5.942;2023-01-06T15:23:14;4;;;0;;
15504;SDS011;7854;52.184;5.942;2023-01-06T15:25:28;3;;;0;;
15504;SDS011;7854;52.184;5.942;2023-01-06T15:27:44;0;;;0;;